TAF and METAR

METAR for Tambacounda Airport

GOTT 010900Z 04004KT CAVOK 25/08 Q1010
Report created 1. mar 10:00
wind 4 knots from NE (040°) Clear sky Temperature 25° with dewpoint at 8° (Humidity 33.92%) Pressure 1010 hPa
No TAF available for Tambacounda Airport